createdAt,value
2018-02-06T00:02:20.028Z,5.40
2018-02-06T00:04:46.545Z,5.40
2018-02-06T00:07:12.951Z,5.40
2018-02-06T00:09:39.668Z,5.40
2018-02-06T00:12:06.539Z,5.50
2018-02-06T00:14:33.040Z,5.50
2018-02-06T00:16:59.588Z,5.50
2018-02-06T00:19:26.076Z,5.60
2018-02-06T00:21:52.639Z,5.50
2018-02-06T00:24:19.104Z,5.40
2018-02-06T00:26:45.729Z,5.40
2018-02-06T00:29:12.247Z,5.40
2018-02-06T00:31:38.740Z,5.40
2018-02-06T00:34:05.634Z,5.40
2018-02-06T00:36:32.117Z,5.40
2018-02-06T00:38:58.645Z,5.40
2018-02-06T00:41:25.176Z,5.30
2018-02-06T00:43:51.716Z,5.30
2018-02-06T00:46:18.284Z,5.30
2018-02-06T00:48:44.729Z,5.20
2018-02-06T00:51:11.312Z,5.10
2018-02-06T00:53:38.195Z,5.20
2018-02-06T00:56:05.676Z,5.10
2018-02-06T00:58:32.220Z,5.00
2018-02-06T01:00:59.022Z,5.00
2018-02-06T01:03:27.733Z,5.00
2018-02-06T01:05:54.216Z,4.90
2018-02-06T01:08:20.778Z,4.90
2018-02-06T01:10:47.289Z,4.70
2018-02-06T01:13:13.815Z,4.70
2018-02-06T01:15:40.456Z,4.70
2018-02-06T01:18:06.904Z,4.60
2018-02-06T01:20:33.278Z,4.60
2018-02-06T01:23:00.044Z,4.60
2018-02-06T01:25:26.552Z,4.40
2018-02-06T01:27:53.087Z,4.40
2018-02-06T01:30:19.639Z,4.30
2018-02-06T01:32:47.106Z,4.20
2018-02-06T01:35:13.566Z,4.30
2018-02-06T01:37:40.188Z,4.20
2018-02-06T01:40:06.629Z,4.10
2018-02-06T01:42:33.468Z,4.10
2018-02-06T01:45:00.367Z,4.10
2018-02-06T01:47:28.071Z,4.00
2018-02-06T01:50:03.756Z,3.90
2018-02-06T01:52:30.351Z,3.90
2018-02-06T01:54:56.918Z,3.90
2018-02-06T01:57:23.759Z,3.90
2018-02-06T01:59:50.275Z,3.80
2018-02-06T02:02:17.258Z,3.80
2018-02-06T02:04:43.715Z,3.70
2018-02-06T02:07:10.580Z,3.70
2018-02-06T02:09:38.260Z,3.60
2018-02-06T02:12:05.172Z,3.60
2018-02-06T02:14:31.975Z,3.50
2018-02-06T02:16:58.551Z,3.50
2018-02-06T02:19:25.387Z,3.50
2018-02-06T02:21:51.864Z,3.40
2018-02-06T02:24:18.377Z,3.30
2018-02-06T02:26:44.959Z,3.30
2018-02-06T02:29:11.525Z,3.30
2018-02-06T02:31:38.318Z,3.20
2018-02-06T02:34:04.904Z,3.20
2018-02-06T02:36:31.365Z,3.30
2018-02-06T02:38:57.982Z,3.30
2018-02-06T02:41:25.374Z,3.30
2018-02-06T04:38:57.827Z,2.20
2018-02-06T04:41:24.693Z,2.30
2018-02-06T04:43:54.271Z,2.20
2018-02-06T04:46:20.839Z,2.10
2018-02-06T04:48:47.381Z,2.10
2018-02-06T04:51:13.900Z,2.20
2018-02-06T04:53:40.424Z,2.10
2018-02-06T04:56:06.924Z,2.10
2018-02-06T04:58:33.503Z,2.10
2018-02-06T05:01:00.046Z,2.10
2018-02-06T05:03:26.530Z,2.00
2018-02-06T05:05:53.066Z,2.00
2018-02-06T05:08:19.648Z,2.00
2018-02-06T05:10:46.438Z,2.00
2018-02-06T05:13:12.876Z,2.10
2018-02-06T05:15:39.605Z,2.10
2018-02-06T05:18:06.104Z,2.00
2018-02-06T05:20:32.583Z,2.00
2018-02-06T05:22:59.135Z,1.90
2018-02-06T05:25:25.660Z,2.00
2018-02-06T05:27:52.571Z,1.90
2018-02-06T05:30:19.383Z,1.90
2018-02-06T05:32:46.280Z,1.90
2018-02-06T05:35:12.703Z,1.90
2018-02-06T05:37:39.296Z,1.90
2018-02-06T05:40:05.818Z,1.90
2018-02-06T05:42:32.393Z,2.00
2018-02-06T05:44:58.888Z,2.00
2018-02-06T05:47:25.720Z,2.20
2018-02-06T05:49:53.106Z,2.20
2018-02-06T05:52:20.676Z,2.20
2018-02-06T05:54:47.449Z,2.30
2018-02-06T05:57:13.840Z,2.40
2018-02-06T05:59:40.836Z,2.60
2018-02-06T06:02:07.510Z,2.80
2018-02-06T06:04:33.892Z,3.00
2018-02-06T06:07:00.498Z,3.50
2018-02-06T06:09:27.090Z,4.00
2018-02-06T06:11:53.512Z,4.60
2018-02-06T06:14:19.892Z,5.20
2018-02-06T06:16:46.944Z,6.00
2018-02-06T06:19:13.434Z,6.60
2018-02-06T06:21:40.035Z,7.20
2018-02-06T06:24:06.564Z,7.80
2018-02-06T06:26:33.319Z,8.40
2018-02-06T06:28:59.859Z,9.10
2018-02-06T06:31:26.466Z,9.80
2018-02-06T06:33:53.011Z,10.50
2018-02-06T06:36:19.419Z,11.20
2018-02-06T06:38:46.303Z,12.00
2018-02-06T06:41:12.899Z,12.60
2018-02-06T06:43:39.380Z,13.10
2018-02-06T06:46:05.939Z,13.60
2018-02-06T06:48:32.522Z,14.00
2018-02-06T06:50:59.380Z,14.40
2018-02-06T06:53:25.887Z,15.00
2018-02-06T06:55:52.733Z,15.50
2018-02-06T06:58:19.115Z,16.10
2018-02-06T07:00:45.744Z,16.80
2018-02-06T07:03:12.579Z,17.50
2018-02-06T07:05:39.879Z,18.20
2018-02-06T07:08:06.255Z,18.70
2018-02-06T07:10:32.855Z,19.20
2018-02-06T07:12:59.349Z,19.60
2018-02-06T07:15:25.836Z,20.00
2018-02-06T07:17:53.085Z,20.30
2018-02-06T07:20:19.978Z,20.60
2018-02-06T07:22:47.017Z,20.90
2018-02-06T07:25:13.484Z,21.40
2018-02-06T07:27:40.082Z,21.80
2018-02-06T07:30:06.684Z,22.00
2018-02-06T07:32:33.221Z,22.00
2018-02-06T07:35:00.093Z,22.20
2018-02-06T07:37:26.527Z,22.50
2018-02-06T07:39:53.141Z,22.80
2018-02-06T07:42:19.551Z,23.20
2018-02-06T07:44:46.197Z,23.40
2018-02-06T07:47:12.997Z,23.60
2018-02-06T07:49:39.833Z,23.90
2018-02-06T07:52:06.719Z,24.20
2018-02-06T07:54:33.276Z,24.50
2018-02-06T07:57:00.660Z,24.60
2018-02-06T07:59:27.204Z,24.80
2018-02-06T08:01:53.744Z,25.20
2018-02-06T08:04:20.283Z,25.40
2018-02-06T08:06:56.708Z,25.60
2018-02-06T08:09:23.233Z,25.80
2018-02-06T08:11:49.646Z,26.30
2018-02-06T08:14:16.227Z,26.60
2018-02-06T08:16:42.765Z,26.90
2018-02-06T08:19:09.308Z,26.90
2018-02-06T08:21:35.837Z,26.80
2018-02-06T08:24:02.370Z,27.00
2018-02-06T08:26:29.020Z,27.40
2018-02-06T08:28:55.425Z,28.00
2018-02-06T08:31:21.981Z,28.30
2018-02-06T08:33:48.567Z,28.30
2018-02-06T08:36:15.057Z,28.20
2018-02-06T08:38:41.588Z,28.40
2018-02-06T08:41:08.423Z,28.40
2018-02-06T08:43:34.961Z,28.40
2018-02-06T08:46:01.824Z,28.50
2018-02-06T08:48:28.415Z,28.50
2018-02-06T08:50:54.964Z,28.20
2018-02-06T08:53:21.441Z,28.30
2018-02-06T08:55:48.012Z,28.20
2018-02-06T08:58:14.484Z,28.40
2018-02-06T09:00:41.007Z,28.40
2018-02-06T09:03:08.440Z,28.50
2018-02-06T09:05:35.373Z,28.20
2018-02-06T09:08:02.212Z,27.80
2018-02-06T09:10:28.713Z,27.60
2018-02-06T09:12:55.152Z,27.10
2018-02-06T09:15:22.152Z,27.40
2018-02-06T09:17:48.612Z,27.20
2018-02-06T09:20:15.200Z,26.60
2018-02-06T09:22:42.001Z,26.90
2018-02-06T09:25:08.588Z,26.60
2018-02-06T09:27:35.130Z,26.90
2018-02-06T09:30:01.676Z,27.30
2018-02-06T09:32:28.187Z,27.20
2018-02-06T09:34:54.750Z,27.20
2018-02-06T09:37:21.216Z,26.70
2018-02-06T09:39:47.740Z,26.10
2018-02-06T09:42:14.281Z,24.80
2018-02-06T09:44:40.871Z,24.70
2018-02-06T09:47:07.331Z,25.10
2018-02-06T09:49:34.006Z,25.60
2018-02-06T09:52:00.512Z,26.20
2018-02-06T09:54:27.879Z,26.40
2018-02-06T09:56:54.368Z,26.50
2018-02-06T09:59:20.996Z,26.90
2018-02-06T10:01:47.767Z,26.50
2018-02-06T10:04:14.620Z,25.50
2018-02-06T10:06:41.199Z,24.80
2018-02-06T10:09:07.684Z,24.90
2018-02-06T10:11:34.211Z,24.90
2018-02-06T10:14:01.387Z,25.40
2018-02-06T10:16:27.959Z,25.80
2018-02-06T10:18:54.489Z,26.30
2018-02-06T10:21:20.974Z,26.30
2018-02-06T10:23:47.567Z,26.50
2018-02-06T10:26:14.996Z,26.30
2018-02-06T10:28:41.506Z,26.50
2018-02-06T10:31:08.139Z,26.30
2018-02-06T10:33:34.636Z,26.20
2018-02-06T10:36:01.117Z,25.70
2018-02-06T10:38:29.803Z,25.00
2018-02-06T10:40:56.251Z,24.90
2018-02-06T10:43:23.071Z,24.80
2018-02-06T10:45:49.760Z,24.60
2018-02-06T10:48:16.222Z,23.70
2018-02-06T10:50:42.797Z,23.20
2018-02-06T10:53:09.362Z,23.20
2018-02-06T10:55:36.167Z,23.50
2018-02-06T10:58:02.765Z,23.70
2018-02-06T11:00:29.240Z,23.70
2018-02-06T11:02:55.785Z,23.50
2018-02-06T11:05:22.328Z,23.50
2018-02-06T11:07:49.087Z,23.50
2018-02-06T11:10:15.689Z,23.30
2018-02-06T11:12:42.273Z,22.80
2018-02-06T11:15:08.811Z,22.60
2018-02-06T11:17:35.599Z,22.10
2018-02-06T11:20:03.113Z,21.70
2018-02-06T11:22:30.565Z,21.20
2018-02-06T11:24:57.133Z,20.80
2018-02-06T11:27:23.643Z,20.20
2018-02-06T11:29:50.133Z,19.80
2018-02-06T11:32:17.067Z,19.50
2018-02-06T11:34:43.484Z,19.40
2018-02-06T11:37:10.096Z,19.30
2018-02-06T11:39:36.563Z,19.10
2018-02-06T11:42:03.154Z,18.90
2018-02-06T11:44:29.635Z,18.50
2018-02-06T11:46:57.088Z,18.40
2018-02-06T11:49:23.699Z,18.20
2018-02-06T11:51:50.133Z,17.90
2018-02-06T11:54:16.660Z,17.60
2018-02-06T11:56:43.228Z,17.40
2018-02-06T11:59:10.720Z,17.40
2018-02-06T12:01:37.547Z,17.40
2018-02-06T12:04:04.426Z,17.40
2018-02-06T12:06:31.271Z,17.20
2018-02-06T12:08:57.750Z,16.70
2018-02-06T12:11:24.268Z,16.70
2018-02-06T12:13:50.877Z,16.80
2018-02-06T12:16:17.408Z,16.60
2018-02-06T12:18:44.164Z,16.60
2018-02-06T12:21:11.023Z,16.50
2018-02-06T12:23:37.490Z,16.40
2018-02-06T12:26:04.198Z,16.40
2018-02-06T12:28:31.860Z,16.20
2018-02-06T12:30:58.469Z,16.30
2018-02-06T12:33:25.019Z,16.40
2018-02-06T12:35:51.428Z,16.50
2018-02-06T12:38:18.043Z,16.30
2018-02-06T12:40:44.590Z,16.00
2018-02-06T12:43:12.064Z,16.10
2018-02-06T12:45:38.537Z,16.10
2018-02-06T12:48:05.408Z,16.20
2018-02-06T12:50:31.924Z,16.10
2018-02-06T12:52:58.771Z,15.90
2018-02-06T12:55:25.163Z,15.90
2018-02-06T12:57:51.902Z,15.80
2018-02-06T13:00:18.369Z,15.60
2018-02-06T13:02:45.940Z,15.20
2018-02-06T13:05:12.367Z,15.20
2018-02-06T13:07:38.881Z,15.20
2018-02-06T13:10:05.341Z,15.00
2018-02-06T13:12:32.018Z,14.90
2018-02-06T13:14:58.543Z,14.90
2018-02-06T13:17:25.103Z,14.80
2018-02-06T13:19:51.487Z,14.70
2018-02-06T13:22:18.183Z,14.70
2018-02-06T13:24:44.721Z,14.70
2018-02-06T13:27:12.411Z,14.60
2018-02-06T13:29:39.290Z,14.70
2018-02-06T13:32:05.845Z,14.80
2018-02-06T13:34:32.385Z,14.60
2018-02-06T13:36:58.848Z,14.50
2018-02-06T13:39:25.482Z,14.60
2018-02-06T13:41:52.587Z,14.70
2018-02-06T13:44:19.082Z,14.60
2018-02-06T13:46:45.474Z,14.50
2018-02-06T13:49:12.139Z,14.40
2018-02-06T13:51:38.732Z,14.10
2018-02-06T13:54:05.211Z,14.00
2018-02-06T13:56:31.806Z,13.90
2018-02-06T13:58:58.334Z,13.60
2018-02-06T14:01:24.874Z,13.60
2018-02-06T14:03:51.267Z,13.50
2018-02-06T14:06:17.889Z,13.00
2018-02-06T14:08:44.524Z,12.90
2018-02-06T14:11:11.000Z,12.70
2018-02-06T14:13:39.030Z,12.60
2018-02-06T14:16:05.556Z,12.40
2018-02-06T14:18:32.103Z,12.30
2018-02-06T14:20:58.652Z,12.50
2018-02-06T14:23:25.533Z,12.60
2018-02-06T14:25:52.120Z,12.50
2018-02-06T14:28:19.479Z,12.50
2018-02-06T14:30:46.236Z,12.10
2018-02-06T14:33:12.863Z,11.90
2018-02-06T14:35:39.390Z,12.00
2018-02-06T14:38:05.980Z,11.70
2018-02-06T14:40:34.060Z,11.60
2018-02-06T14:43:00.950Z,11.30
2018-02-06T14:45:27.348Z,10.90
2018-02-06T14:47:53.943Z,10.70
2018-02-06T14:50:20.808Z,10.70
2018-02-06T14:52:48.473Z,10.70
2018-02-06T14:55:15.048Z,10.70
2018-02-06T14:57:41.808Z,10.70
2018-02-06T15:00:09.084Z,10.60
2018-02-06T15:02:35.649Z,10.50
2018-02-06T15:05:02.145Z,10.30
2018-02-06T15:09:57.947Z,10.10
2018-02-06T15:12:24.834Z,10.00
2018-02-06T15:14:51.320Z,9.90
2018-02-06T15:17:19.157Z,9.90
2018-02-06T15:19:45.694Z,9.80
2018-02-06T15:22:12.193Z,9.80
2018-02-06T15:24:38.585Z,9.70
2018-02-06T15:27:05.255Z,9.70
2018-02-06T15:29:32.136Z,9.50
2018-02-06T15:31:58.633Z,9.40
2018-02-06T15:34:25.200Z,9.10
2018-02-06T15:36:51.666Z,8.90
2018-02-06T15:39:18.205Z,8.80
2018-02-06T15:41:44.727Z,8.60
2018-02-06T15:44:11.472Z,8.40
2018-02-06T15:46:38.144Z,8.30
2018-02-06T15:49:05.468Z,8.20
2018-02-06T15:51:32.145Z,7.90
2018-02-06T15:53:58.701Z,7.80
2018-02-06T15:56:25.199Z,7.80
2018-02-06T15:58:51.800Z,7.70
2018-02-06T16:01:19.155Z,7.70
2018-02-06T16:03:46.679Z,7.70
2018-02-06T16:06:14.203Z,7.70
2018-02-06T16:08:40.728Z,7.80
2018-02-06T16:11:07.273Z,7.80
2018-02-06T16:13:33.799Z,7.50
2018-02-06T16:16:00.275Z,7.40
2018-02-06T16:18:26.860Z,7.30
2018-02-06T16:20:53.352Z,7.30
2018-02-06T16:23:19.895Z,7.30
2018-02-06T16:25:46.415Z,7.10
2018-02-06T16:28:12.911Z,6.90
2018-02-06T16:30:39.759Z,6.90
2018-02-06T16:33:06.349Z,7.00
2018-02-06T16:35:33.112Z,6.80
2018-02-06T16:37:59.667Z,6.70
2018-02-06T16:40:26.316Z,6.60
2018-02-06T16:42:52.780Z,6.40
2018-02-06T16:45:19.344Z,6.40
2018-02-06T16:47:45.793Z,6.60
2018-02-06T16:50:12.656Z,6.50
2018-02-06T16:52:39.047Z,6.40
2018-02-06T16:55:05.756Z,6.40
2018-02-06T16:57:33.192Z,6.40
2018-02-06T16:59:59.699Z,6.30
2018-02-06T17:02:38.584Z,6.10
2018-02-06T17:05:05.014Z,6.00
2018-02-06T17:07:31.907Z,5.90
2018-02-06T17:09:59.325Z,5.90
2018-02-06T17:12:25.951Z,5.80
2018-02-06T17:14:52.488Z,5.80
2018-02-06T17:17:18.966Z,5.70
2018-02-06T17:19:46.167Z,5.60
2018-02-06T17:22:12.640Z,5.50
2018-02-06T17:24:39.244Z,5.40
2018-02-06T17:27:06.023Z,5.30
2018-02-06T17:29:34.402Z,5.40
2018-02-06T17:32:01.532Z,5.30
2018-02-06T17:34:28.152Z,5.20
2018-02-06T17:36:54.675Z,5.10
2018-02-06T17:39:21.084Z,5.20
2018-02-06T17:41:47.683Z,5.10
2018-02-06T17:44:14.289Z,5.10
2018-02-06T17:46:41.064Z,5.10
2018-02-06T17:49:07.604Z,4.90
2018-02-06T17:51:34.507Z,4.90
2018-02-06T17:54:01.032Z,4.90
2018-02-06T17:56:28.424Z,4.90
2018-02-06T17:58:54.874Z,4.90
2018-02-06T18:01:21.547Z,4.80
2018-02-06T18:03:48.044Z,4.80
2018-02-06T18:06:14.598Z,4.70
2018-02-06T18:08:41.109Z,4.70
2018-02-06T18:11:07.575Z,4.60
2018-02-06T18:13:35.138Z,4.60
2018-02-06T18:16:01.634Z,4.60
2018-02-06T18:18:28.247Z,4.60
2018-02-06T18:20:55.073Z,4.60
2018-02-06T18:23:21.553Z,4.60
2018-02-06T18:25:48.409Z,4.60
2018-02-06T18:28:15.367Z,4.50
2018-02-06T18:30:41.774Z,4.60
2018-02-06T18:33:08.318Z,4.50
2018-02-06T18:35:35.224Z,4.50
2018-02-06T18:38:01.698Z,4.50
2018-02-06T18:40:28.298Z,4.40
2018-02-06T18:42:54.778Z,4.40
2018-02-06T18:45:21.716Z,4.30
2018-02-06T18:47:48.243Z,4.30
2018-02-06T18:50:14.645Z,4.20
2018-02-06T18:52:41.253Z,4.20
2018-02-06T18:55:07.714Z,4.20
2018-02-06T18:57:34.634Z,4.30
2018-02-06T19:00:01.449Z,4.30
2018-02-06T19:02:28.010Z,4.30
2018-02-06T19:04:54.545Z,4.30
2018-02-06T19:07:21.038Z,4.30
2018-02-06T19:09:47.619Z,4.20
2018-02-06T19:12:14.022Z,4.20
2018-02-06T19:14:40.646Z,4.30
2018-02-06T19:17:07.039Z,4.30
2018-02-06T19:19:33.716Z,4.20
2018-02-06T19:22:00.247Z,4.30
2018-02-06T19:24:26.828Z,4.30
2018-02-06T19:26:53.425Z,4.30
2018-02-06T19:29:19.855Z,4.30
2018-02-06T19:31:46.467Z,4.30
2018-02-06T19:34:12.976Z,4.40
2018-02-06T19:36:39.562Z,4.40
2018-02-06T19:39:06.057Z,4.30
2018-02-06T19:41:32.539Z,4.30
2018-02-06T19:43:59.121Z,4.30
2018-02-06T19:46:25.593Z,4.40
2018-02-06T19:48:52.189Z,4.40
2018-02-06T19:51:18.765Z,4.40
2018-02-06T19:53:45.260Z,4.40
2018-02-06T19:56:12.048Z,4.50
2018-02-06T19:58:38.618Z,4.40
2018-02-06T20:01:05.051Z,4.40
2018-02-06T20:03:31.652Z,4.40
2018-02-06T20:05:58.243Z,4.40
2018-02-06T20:08:24.713Z,4.50
2018-02-06T20:10:51.676Z,4.50
2018-02-06T20:13:18.118Z,4.50
2018-02-06T20:15:44.676Z,4.40
2018-02-06T20:18:11.080Z,4.50
2018-02-06T20:20:38.001Z,4.60
2018-02-06T20:23:04.562Z,4.60
2018-02-06T20:25:31.144Z,4.70
2018-02-06T20:27:57.984Z,4.70
2018-02-06T20:30:24.537Z,4.70
2018-02-06T20:32:51.673Z,4.70
2018-02-06T20:35:18.463Z,4.80
2018-02-06T20:37:44.986Z,4.90
2018-02-06T20:40:11.637Z,5.00
2018-02-06T20:42:39.054Z,4.90
2018-02-06T20:45:05.558Z,4.80
2018-02-06T20:47:32.369Z,4.60
2018-02-06T20:49:58.954Z,4.60
2018-02-06T20:52:25.479Z,4.60
2018-02-06T20:54:52.014Z,4.50
2018-02-06T20:57:18.901Z,4.50
2018-02-06T20:59:45.393Z,4.50
2018-02-06T21:02:11.789Z,4.60
2018-02-06T21:04:39.312Z,4.60
2018-02-06T21:07:05.856Z,4.60
2018-02-06T21:09:32.449Z,4.60
2018-02-06T21:12:00.463Z,4.60
2018-02-06T21:14:27.074Z,4.60
2018-02-06T21:16:53.570Z,4.50
2018-02-06T21:19:20.067Z,4.50
2018-02-06T21:21:46.750Z,4.50
2018-02-06T21:24:13.509Z,4.60
2018-02-06T21:26:39.976Z,4.60
2018-02-06T21:29:06.427Z,4.60
2018-02-06T21:31:33.052Z,4.50
2018-02-06T21:33:59.644Z,4.50
2018-02-06T21:36:26.126Z,4.40
2018-02-06T21:38:52.730Z,4.50
2018-02-06T21:41:19.504Z,4.50
2018-02-06T21:43:46.045Z,4.50
2018-02-06T21:46:12.441Z,4.50
2018-02-06T21:48:39.176Z,4.50
2018-02-06T21:51:05.954Z,4.60
2018-02-06T21:53:32.473Z,4.50
2018-02-06T21:55:59.961Z,4.60
2018-02-06T21:58:26.467Z,4.60
2018-02-06T22:00:53.911Z,4.60
2018-02-06T22:03:20.566Z,4.60
2018-02-06T22:05:47.007Z,4.60
2018-02-06T22:08:13.622Z,4.50
2018-02-06T22:10:40.158Z,4.30
2018-02-06T22:13:06.621Z,4.50
2018-02-06T22:15:33.141Z,4.40
2018-02-06T22:17:59.682Z,4.50
2018-02-06T22:20:26.276Z,4.40
2018-02-06T22:22:52.813Z,4.40
2018-02-06T22:25:20.015Z,4.30
2018-02-06T22:27:46.455Z,4.40
2018-02-06T22:30:12.925Z,4.30
2018-02-06T22:32:40.536Z,4.30
2018-02-06T22:35:07.017Z,4.30
2018-02-06T22:37:33.806Z,4.20
2018-02-06T22:40:00.672Z,4.20
2018-02-06T22:42:27.491Z,4.30
2018-02-06T22:44:54.400Z,4.30
2018-02-06T22:47:20.929Z,4.30
2018-02-06T22:49:47.451Z,4.40
2018-02-06T22:52:13.987Z,4.40
2018-02-06T22:54:40.543Z,4.40
2018-02-06T22:57:07.328Z,4.50
2018-02-06T22:59:33.908Z,4.50
2018-02-06T23:02:00.403Z,4.30
2018-02-06T23:04:27.204Z,4.30
2018-02-06T23:06:53.765Z,4.20
2018-02-06T23:09:20.296Z,4.20
2018-02-06T23:11:46.937Z,4.20
2018-02-06T23:14:14.384Z,4.30
2018-02-06T23:16:40.840Z,4.30
2018-02-06T23:19:07.366Z,4.30
2018-02-06T23:21:33.913Z,4.10
2018-02-06T23:24:00.509Z,4.10
2018-02-06T23:26:27.012Z,4.00
2018-02-06T23:28:53.563Z,4.10
2018-02-06T23:31:20.106Z,4.10
2018-02-06T23:33:46.639Z,4.20
2018-02-06T23:36:13.147Z,4.10
2018-02-06T23:38:39.632Z,4.30
2018-02-06T23:41:06.244Z,4.30
2018-02-06T23:43:32.760Z,4.40
2018-02-06T23:45:59.304Z,4.40
2018-02-06T23:48:25.831Z,4.40
2018-02-06T23:50:52.317Z,4.50
2018-02-06T23:53:19.770Z,4.60
2018-02-06T23:55:46.396Z,4.60
2018-02-06T23:58:12.841Z,4.60
